createdAt,value
2022-08-17T00:02:57.145Z,17.90
2022-08-17T00:05:57.990Z,18.70
2022-08-17T00:08:48.518Z,19.50
2022-08-17T00:11:40.994Z,18.43
2022-08-17T00:14:29.817Z,17.37
2022-08-17T00:17:18.207Z,18.03
2022-08-17T00:20:08.391Z,18.60
2022-08-17T00:23:07.884Z,18.30
2022-08-17T00:25:56.482Z,19.10
2022-08-17T00:28:44.671Z,17.83
2022-08-17T00:31:33.546Z,18.63
2022-08-17T00:34:21.772Z,18.73
2022-08-17T00:37:10.016Z,19.57
2022-08-17T00:39:59.704Z,19.07
2022-08-17T00:42:50.372Z,19.40
2022-08-17T00:45:45.530Z,18.37
2022-08-17T00:48:34.122Z,19.57
2022-08-17T00:51:31.070Z,18.40
2022-08-17T00:54:24.511Z,18.57
2022-08-17T00:57:19.212Z,17.40
2022-08-17T01:00:13.293Z,19.00
2022-08-17T01:03:08.823Z,18.70
2022-08-17T01:06:02.098Z,17.50
2022-08-17T01:08:52.022Z,19.03
2022-08-17T01:11:46.631Z,19.70
2022-08-17T01:14:41.144Z,18.60
2022-08-17T01:17:32.713Z,18.03
2022-08-17T01:20:21.021Z,17.03
2022-08-17T01:23:20.525Z,18.93
2022-08-17T01:26:11.035Z,18.47
2022-08-17T01:29:03.574Z,20.53
2022-08-17T01:32:01.015Z,19.30
2022-08-17T01:34:50.916Z,20.40
2022-08-17T01:37:42.098Z,20.83
2022-08-17T01:40:37.689Z,18.90
2022-08-17T01:43:30.402Z,21.43
2022-08-17T01:46:21.908Z,21.37
2022-08-17T01:49:11.542Z,21.00
2022-08-17T01:52:02.193Z,21.83
2022-08-17T01:54:54.729Z,21.80
2022-08-17T01:57:47.642Z,21.70
2022-08-17T02:00:59.789Z,21.90
2022-08-17T02:03:59.095Z,20.17
2022-08-17T02:07:03.955Z,21.03
2022-08-17T02:09:58.286Z,21.40
2022-08-17T02:12:51.684Z,21.93
2022-08-17T02:15:41.432Z,22.20
2022-08-17T02:18:31.329Z,20.67
2022-08-17T02:21:20.017Z,19.90
2022-08-17T02:25:00.131Z,19.33
2022-08-17T02:27:24.773Z,20.60
2022-08-17T02:30:59.722Z,20.20
2022-08-17T02:33:42.828Z,20.57
2022-08-17T02:36:37.677Z,20.67
2022-08-17T02:39:27.628Z,21.10
2022-08-17T02:42:16.346Z,20.47
2022-08-17T02:45:06.729Z,21.00
2022-08-17T02:48:08.410Z,20.70
2022-08-17T02:50:58.582Z,21.57
2022-08-17T02:54:40.152Z,19.63
2022-08-17T02:57:20.328Z,21.63
2022-08-17T03:00:10.554Z,21.07
2022-08-17T03:03:07.376Z,21.50
2022-08-17T03:05:55.906Z,21.03
2022-08-17T03:08:47.517Z,21.67
2022-08-17T03:11:36.202Z,22.63
2022-08-17T03:14:26.400Z,22.97
2022-08-17T03:17:17.487Z,24.07
2022-08-17T03:20:08.634Z,22.30
2022-08-17T03:23:02.980Z,21.83
2022-08-17T03:26:16.249Z,21.97
2022-08-17T03:29:04.606Z,21.30
2022-08-17T03:32:42.004Z,22.07
2022-08-17T03:35:33.789Z,23.23
2022-08-17T03:38:22.089Z,24.80
2022-08-17T03:41:11.574Z,23.03
2022-08-17T03:44:01.062Z,23.07
2022-08-17T03:47:22.298Z,23.27
2022-08-17T03:51:14.535Z,21.90
2022-08-17T03:54:49.237Z,22.27
2022-08-17T03:57:37.799Z,23.10
2022-08-17T04:00:27.623Z,23.50
2022-08-17T04:03:25.269Z,24.93
2022-08-17T04:06:19.560Z,23.10
2022-08-17T04:09:09.225Z,23.57
2022-08-17T04:12:04.819Z,26.50
2022-08-17T04:14:54.968Z,24.13
2022-08-17T04:17:44.456Z,25.80
2022-08-17T04:20:32.695Z,25.93
2022-08-17T04:23:22.008Z,25.63
2022-08-17T04:26:53.039Z,23.80
2022-08-17T04:29:55.349Z,25.17
2022-08-17T04:33:06.230Z,24.40
2022-08-17T04:35:58.282Z,25.03
2022-08-17T04:38:48.463Z,25.83
2022-08-17T04:42:03.027Z,23.30
2022-08-17T04:44:55.234Z,24.97
2022-08-17T04:47:47.884Z,25.53
2022-08-17T04:50:51.973Z,26.27
2022-08-17T04:53:40.847Z,25.70
2022-08-17T04:56:35.740Z,25.33
2022-08-17T04:59:25.443Z,26.37
2022-08-17T05:02:30.215Z,27.70
2022-08-17T05:05:31.107Z,28.10
2022-08-17T05:08:24.622Z,30.50
2022-08-17T05:11:12.907Z,30.20
2022-08-17T05:14:08.480Z,28.47
2022-08-17T05:16:56.741Z,31.00
2022-08-17T05:19:51.747Z,30.67
2022-08-17T05:22:51.809Z,30.43
2022-08-17T05:26:01.670Z,31.43
2022-08-17T05:28:52.342Z,28.90
2022-08-17T05:31:53.953Z,28.90
2022-08-17T05:34:43.863Z,29.97
2022-08-17T05:37:33.430Z,31.23
2022-08-17T05:40:45.500Z,30.20
2022-08-17T05:43:44.151Z,29.80
2022-08-17T05:46:36.873Z,32.20
2022-08-17T05:49:30.711Z,30.33
2022-08-17T05:52:31.816Z,32.33
2022-08-17T05:55:32.998Z,28.40
2022-08-17T05:58:26.318Z,27.20
2022-08-17T06:01:24.404Z,25.57
2022-08-17T06:04:26.077Z,28.70
2022-08-17T06:07:21.854Z,26.97
2022-08-17T06:10:18.429Z,25.93
2022-08-17T06:13:19.955Z,26.47
2022-08-17T06:16:33.116Z,25.37
2022-08-17T06:19:29.134Z,28.20
2022-08-17T06:22:21.009Z,25.33
2022-08-17T06:25:16.038Z,28.50
2022-08-17T06:28:06.789Z,26.37
2022-08-17T06:31:01.855Z,21.70
2022-08-17T06:33:51.143Z,24.50
2022-08-17T06:36:53.954Z,28.03
2022-08-17T06:39:50.761Z,24.97
2022-08-17T06:43:00.875Z,24.33
2022-08-17T06:46:04.113Z,25.50
2022-08-17T06:49:07.386Z,25.90
2022-08-17T06:52:03.683Z,25.70
2022-08-17T06:54:57.658Z,24.60
2022-08-17T06:57:50.402Z,22.73
2022-08-17T07:00:43.004Z,25.13
2022-08-17T07:03:38.104Z,21.73
2022-08-17T07:06:30.259Z,23.07
2022-08-17T07:09:24.723Z,22.13
2022-08-17T07:12:16.915Z,20.60
2022-08-17T07:15:15.666Z,20.50
2022-08-17T07:18:04.099Z,22.93
2022-08-17T07:20:59.393Z,21.27
2022-08-17T07:24:04.398Z,18.60
2022-08-17T07:27:09.297Z,20.20
2022-08-17T07:30:05.685Z,20.17
2022-08-17T07:32:59.890Z,20.23
2022-08-17T07:35:50.027Z,19.80
2022-08-17T07:38:59.186Z,19.10
2022-08-17T07:41:53.409Z,17.60
2022-08-17T07:44:53.460Z,17.27
2022-08-17T07:47:59.023Z,16.00
2022-08-17T07:50:53.118Z,16.23
2022-08-17T07:53:43.069Z,16.73
2022-08-17T07:56:45.009Z,15.93
2022-08-17T07:59:39.013Z,15.97
2022-08-17T08:02:34.401Z,14.53
2022-08-17T08:05:48.547Z,14.17
2022-08-17T08:08:42.232Z,14.23
2022-08-17T08:11:34.436Z,13.80
2022-08-17T08:14:28.543Z,15.07
2022-08-17T08:17:25.593Z,13.60
2022-08-17T08:20:19.657Z,12.90
2022-08-17T08:23:36.062Z,14.77
2022-08-17T08:26:33.162Z,13.17
2022-08-17T08:29:32.627Z,13.77
2022-08-17T08:32:37.211Z,13.20
2022-08-17T08:35:32.373Z,13.17
2022-08-17T08:38:30.821Z,12.57
2022-08-17T08:41:39.339Z,13.23
2022-08-17T08:45:00.295Z,11.17
2022-08-17T08:48:45.939Z,11.33
2022-08-17T08:51:30.695Z,11.07
2022-08-17T08:54:33.449Z,11.03
2022-08-17T08:57:32.898Z,10.43
2022-08-17T09:00:27.458Z,11.17
2022-08-17T09:03:51.705Z,9.80
2022-08-17T09:06:49.891Z,10.00
2022-08-17T09:09:50.506Z,11.40
2022-08-17T09:12:47.972Z,9.63
2022-08-17T09:15:45.300Z,10.00
2022-08-17T09:18:59.983Z,9.70
2022-08-17T09:21:54.489Z,9.60
2022-08-17T09:24:48.500Z,9.63
2022-08-17T09:27:51.578Z,9.60
2022-08-17T09:30:45.446Z,10.00
2022-08-17T09:33:38.100Z,9.33
2022-08-17T09:36:32.111Z,9.73
2022-08-17T09:39:31.008Z,9.87
2022-08-17T09:42:27.912Z,10.20
2022-08-17T09:45:28.062Z,10.87
2022-08-17T09:48:24.244Z,9.93
2022-08-17T09:51:19.235Z,9.77
2022-08-17T09:54:37.995Z,9.80
2022-08-17T09:57:40.820Z,10.17
2022-08-17T10:00:35.678Z,10.23
2022-08-17T10:03:40.499Z,10.50
2022-08-17T10:06:31.612Z,9.83
2022-08-17T10:09:24.251Z,10.27
2022-08-17T10:12:21.399Z,10.67
2022-08-17T10:15:15.188Z,11.07
2022-08-17T10:18:21.600Z,10.13
2022-08-17T10:21:30.647Z,11.00
2022-08-17T10:24:39.571Z,10.77
2022-08-17T10:27:53.058Z,10.33
2022-08-17T10:30:48.241Z,9.90
2022-08-17T10:33:42.036Z,9.67
2022-08-17T10:36:38.609Z,10.37
2022-08-17T10:39:31.642Z,9.90
2022-08-17T10:42:30.834Z,10.20
2022-08-17T10:45:26.156Z,9.90
2022-08-17T10:48:29.053Z,9.83
2022-08-17T10:51:36.166Z,9.90
2022-08-17T10:54:45.394Z,9.60
2022-08-17T10:57:40.537Z,9.33
2022-08-17T11:00:47.927Z,8.93
2022-08-17T11:03:36.547Z,9.17
2022-08-17T11:06:27.740Z,9.47
2022-08-17T11:09:28.553Z,9.50
2022-08-17T11:12:25.236Z,9.73
2022-08-17T11:15:32.324Z,9.17
2022-08-17T11:18:36.549Z,8.50
2022-08-17T11:21:32.204Z,8.73
2022-08-17T11:24:23.137Z,9.07
2022-08-17T11:27:21.062Z,8.97
2022-08-17T11:30:12.472Z,9.47
2022-08-17T11:33:22.380Z,8.63
2022-08-17T11:36:18.591Z,8.67
2022-08-17T11:39:17.788Z,9.27
2022-08-17T11:42:07.648Z,8.87
2022-08-17T11:44:58.761Z,8.70
2022-08-17T11:48:27.391Z,9.30
2022-08-17T11:51:41.525Z,10.13
2022-08-17T11:54:45.136Z,9.10
2022-08-17T11:58:06.682Z,8.87
2022-08-17T12:00:57.635Z,8.70
2022-08-17T12:03:54.013Z,9.17
2022-08-17T12:06:46.614Z,9.30
2022-08-17T12:09:35.830Z,10.53
2022-08-17T12:12:29.661Z,9.60
2022-08-17T12:15:18.964Z,9.57
2022-08-17T12:18:12.340Z,9.10
2022-08-17T12:21:18.291Z,9.70
2022-08-17T12:24:13.145Z,9.90
2022-08-17T12:27:04.350Z,10.10
2022-08-17T12:29:53.314Z,9.37
2022-08-17T12:32:45.981Z,9.07
2022-08-17T12:35:35.780Z,10.43
2022-08-17T12:38:32.164Z,9.50
2022-08-17T12:41:36.734Z,9.33
2022-08-17T12:44:26.001Z,9.43
2022-08-17T12:47:21.900Z,9.57
2022-08-17T12:50:28.518Z,9.60
2022-08-17T12:53:23.174Z,8.50
2022-08-17T12:56:13.137Z,8.03
2022-08-17T12:59:02.997Z,9.03
2022-08-17T13:01:51.994Z,9.03
2022-08-17T13:04:41.722Z,8.00
2022-08-17T13:07:31.479Z,8.97
2022-08-17T13:10:22.443Z,8.67
2022-08-17T13:13:20.746Z,8.63
2022-08-17T13:16:16.943Z,9.87
2022-08-17T13:19:07.755Z,8.73
2022-08-17T13:21:57.528Z,9.30
2022-08-17T13:24:54.114Z,9.20
2022-08-17T13:27:43.967Z,8.50
2022-08-17T13:30:33.809Z,8.90
2022-08-17T13:33:44.642Z,9.27
2022-08-17T13:36:33.982Z,9.33
2022-08-17T13:39:24.083Z,8.90
2022-08-17T13:42:27.534Z,9.30
2022-08-17T13:45:36.245Z,9.10
2022-08-17T13:48:29.697Z,9.37
2022-08-17T13:51:33.127Z,8.63
2022-08-17T13:54:29.534Z,9.30
2022-08-17T13:57:21.688Z,8.23
2022-08-17T14:00:19.717Z,8.70
2022-08-17T14:03:10.214Z,8.73
2022-08-17T14:06:00.149Z,8.97
2022-08-17T14:08:48.708Z,8.83
2022-08-17T14:11:37.780Z,10.20
2022-08-17T14:14:27.023Z,9.10
2022-08-17T14:17:15.760Z,8.97
2022-08-17T14:20:06.008Z,9.23
2022-08-17T14:22:56.979Z,9.20
2022-08-17T14:25:46.879Z,9.67
2022-08-17T14:28:36.502Z,10.50
2022-08-17T14:31:25.230Z,18.07
2022-08-17T14:34:13.826Z,30.40
2022-08-17T14:37:02.697Z,32.80
2022-08-17T14:39:52.643Z,22.70
2022-08-17T14:42:42.074Z,13.40
2022-08-17T14:45:32.486Z,11.27
2022-08-17T14:48:21.963Z,10.60
2022-08-17T14:51:10.510Z,10.07
2022-08-17T14:53:59.118Z,10.00
2022-08-17T14:56:49.042Z,9.17
2022-08-17T14:59:48.848Z,10.23
2022-08-17T15:02:46.653Z,11.53
2022-08-17T15:05:36.669Z,11.40
2022-08-17T15:08:25.354Z,10.40
2022-08-17T15:11:14.651Z,10.50
2022-08-17T15:14:04.567Z,11.13
2022-08-17T15:16:53.141Z,10.77
2022-08-17T15:19:41.760Z,10.93
2022-08-17T15:22:31.613Z,12.40
2022-08-17T15:25:22.087Z,14.37
2022-08-17T15:28:10.638Z,13.67
2022-08-17T15:31:00.551Z,13.97
2022-08-17T15:33:49.179Z,12.67
2022-08-17T15:36:37.756Z,12.70
2022-08-17T15:39:29.950Z,13.33
2022-08-17T15:42:18.629Z,12.33
2022-08-17T15:45:08.489Z,13.60
2022-08-17T15:47:58.370Z,13.30
2022-08-17T15:50:46.911Z,13.50
2022-08-17T15:53:35.469Z,15.03
2022-08-17T15:56:25.174Z,13.13
2022-08-17T15:59:13.700Z,13.40
2022-08-17T16:02:29.877Z,12.70
2022-08-17T16:05:13.616Z,13.33
2022-08-17T16:08:02.182Z,14.53
2022-08-17T16:10:50.954Z,12.40
2022-08-17T16:13:39.783Z,12.80
2022-08-17T16:16:28.974Z,12.03
2022-08-17T16:19:17.489Z,12.30
2022-08-17T16:22:08.797Z,12.13
2022-08-17T16:24:57.802Z,11.03
2022-08-17T16:27:47.067Z,11.50
2022-08-17T16:30:35.654Z,12.00
2022-08-17T16:33:24.177Z,11.47
2022-08-17T16:36:12.739Z,11.57
2022-08-17T16:39:02.622Z,12.10
2022-08-17T16:41:51.141Z,11.53
2022-08-17T16:44:39.686Z,11.10
2022-08-17T16:47:31.134Z,11.83
2022-08-17T16:50:21.134Z,11.67
2022-08-17T16:53:11.272Z,11.50
2022-08-17T16:56:01.108Z,11.63
2022-08-17T16:58:50.107Z,12.77
2022-08-17T17:01:41.720Z,11.03
2022-08-17T17:04:30.279Z,11.17
2022-08-17T17:07:44.662Z,10.80
2022-08-17T17:10:37.590Z,11.63
2022-08-17T17:13:32.195Z,10.80
2022-08-17T17:16:23.959Z,10.57
2022-08-17T17:19:13.577Z,10.90
2022-08-17T17:22:07.310Z,10.40
2022-08-17T17:25:00.543Z,10.60
2022-08-17T17:27:52.011Z,10.63
2022-08-17T17:30:46.438Z,11.27
2022-08-17T17:33:39.012Z,11.20
2022-08-17T17:36:28.822Z,9.80
2022-08-17T17:39:19.685Z,9.30
2022-08-17T17:42:11.172Z,10.50
2022-08-17T17:45:02.745Z,11.00
2022-08-17T17:47:54.373Z,10.40
2022-08-17T17:50:51.209Z,10.43
2022-08-17T17:53:46.182Z,9.53
2022-08-17T17:56:43.641Z,9.63
2022-08-17T17:59:43.340Z,10.27
2022-08-17T18:02:53.794Z,11.00
2022-08-17T18:05:50.187Z,10.23
2022-08-17T18:08:46.254Z,10.53
2022-08-17T18:11:44.625Z,10.90
2022-08-17T18:14:39.283Z,10.70
2022-08-17T18:17:31.148Z,10.77
2022-08-17T18:20:22.453Z,10.70
2022-08-17T18:23:28.612Z,12.10
2022-08-17T18:26:36.485Z,12.33
2022-08-17T18:29:42.774Z,11.17
2022-08-17T18:32:38.436Z,10.93
2022-08-17T18:35:35.127Z,9.73
2022-08-17T18:38:28.857Z,8.70
2022-08-17T18:41:23.643Z,7.70
2022-08-17T18:44:25.277Z,9.77
2022-08-17T18:47:15.275Z,8.97
2022-08-17T18:50:18.768Z,8.93
2022-08-17T18:53:21.011Z,9.17
2022-08-17T18:56:33.346Z,7.30
2022-08-17T18:59:27.345Z,7.13
2022-08-17T19:02:43.358Z,7.40
2022-08-17T19:05:35.892Z,6.37
2022-08-17T19:08:25.572Z,6.90
2022-08-17T19:11:21.137Z,7.50
2022-08-17T19:14:11.251Z,7.60
2022-08-17T19:17:04.311Z,7.13
2022-08-17T19:19:56.202Z,7.70
2022-08-17T19:22:52.786Z,8.80
2022-08-17T19:25:44.480Z,8.50
2022-08-17T19:28:38.497Z,9.40
2022-08-17T19:31:32.590Z,8.63
2022-08-17T19:34:33.333Z,10.17
2022-08-17T19:37:33.109Z,10.30
2022-08-17T19:40:50.988Z,10.60
2022-08-17T19:43:57.266Z,10.00
2022-08-17T19:46:56.180Z,9.87
2022-08-17T19:50:00.566Z,9.43
2022-08-17T19:52:53.951Z,8.77
2022-08-17T19:55:49.926Z,8.77
2022-08-17T19:58:52.041Z,8.47
2022-08-17T20:01:44.819Z,8.10
2022-08-17T20:04:37.392Z,8.70
2022-08-17T20:07:32.791Z,8.87
2022-08-17T20:10:30.574Z,8.63
2022-08-17T20:13:32.912Z,8.30
2022-08-17T20:16:22.328Z,9.13
2022-08-17T20:19:14.066Z,9.67
2022-08-17T20:22:05.553Z,9.30
2022-08-17T20:24:59.913Z,10.33
2022-08-17T20:27:52.673Z,10.40
2022-08-17T20:30:42.393Z,11.53
2022-08-17T20:33:33.565Z,10.70
2022-08-17T20:36:24.053Z,11.17
2022-08-17T20:39:32.250Z,10.07
2022-08-17T20:42:35.012Z,10.47
2022-08-17T20:45:46.134Z,11.17
2022-08-17T20:48:40.214Z,10.17
2022-08-17T20:51:34.568Z,9.83
2022-08-17T20:54:38.010Z,9.53
2022-08-17T20:57:52.611Z,10.03
2022-08-17T21:00:48.324Z,11.20
2022-08-17T21:03:52.841Z,9.97
2022-08-17T21:06:57.757Z,8.90
2022-08-17T21:09:48.066Z,9.23
2022-08-17T21:12:42.533Z,9.27
2022-08-17T21:15:35.390Z,9.03
2022-08-17T21:18:31.771Z,9.20
2022-08-17T21:21:26.489Z,8.63
2022-08-17T21:24:24.362Z,9.47
2022-08-17T21:27:36.369Z,8.80
2022-08-17T21:30:50.930Z,8.63
2022-08-17T21:33:45.361Z,8.90
2022-08-17T21:36:35.165Z,8.70
2022-08-17T21:39:33.061Z,8.50
2022-08-17T21:42:24.708Z,8.53
2022-08-17T21:45:23.686Z,9.13
2022-08-17T21:48:16.315Z,8.23
2022-08-17T21:51:12.052Z,9.10
2022-08-17T21:54:02.175Z,8.60
2022-08-17T21:56:50.886Z,8.77
2022-08-17T21:59:40.357Z,8.07
2022-08-17T22:02:30.591Z,8.17
2022-08-17T22:05:28.659Z,8.40
2022-08-17T22:08:23.021Z,8.30
2022-08-17T22:11:13.905Z,8.43
2022-08-17T22:14:05.825Z,7.80
2022-08-17T22:17:14.585Z,8.40
2022-08-17T22:20:09.030Z,7.50
2022-08-17T22:23:32.298Z,7.70
2022-08-17T22:26:25.418Z,7.73
2022-08-17T22:29:57.521Z,7.20
2022-08-17T22:32:50.894Z,6.83
2022-08-17T22:35:59.580Z,7.87
2022-08-17T22:38:49.369Z,7.20
2022-08-17T22:41:43.445Z,8.40
2022-08-17T22:44:35.590Z,7.53
2022-08-17T22:47:33.067Z,8.10
2022-08-17T22:50:24.629Z,8.30
2022-08-17T22:53:41.050Z,7.17
2022-08-17T22:56:46.971Z,7.80
2022-08-17T22:59:47.160Z,7.90
2022-08-17T23:02:36.068Z,7.60
2022-08-17T23:05:43.470Z,7.40
2022-08-17T23:08:34.583Z,7.07
2022-08-17T23:11:36.593Z,6.97
2022-08-17T23:14:40.829Z,7.43
2022-08-17T23:17:37.061Z,6.53
2022-08-17T23:20:26.892Z,5.93
2022-08-17T23:23:15.886Z,6.20
2022-08-17T23:26:04.147Z,5.80
2022-08-17T23:28:54.116Z,5.70
2022-08-17T23:31:44.192Z,5.30
2022-08-17T23:34:37.662Z,5.43
2022-08-17T23:37:28.370Z,5.20
2022-08-17T23:40:16.776Z,4.80
2022-08-17T23:43:17.423Z,5.13
2022-08-17T23:46:13.526Z,4.60
2022-08-17T23:49:03.103Z,4.93
2022-08-17T23:51:53.548Z,5.10
2022-08-17T23:54:45.611Z,4.53
2022-08-17T23:57:36.245Z,4.30
